Noblesville, IN (46062)

7:04 PM EDT on April 30, 2017 (GMT -0400)
F16arm | | Change Station

Elev 866 ft 40.05 °N, 86.09 °W | Updated 33 seconds ago

Rain
Rain
65.0 °F
Feels Like 65.0 °F
N
0.0
Wind Variable Wind from SSW

Today
High -- | Low -- °F
--% Chance of Precip.
Yesterday
High -- | Low -- °F
Precip. -- in
Pressure 29.77 in
Visibility 4.0 miles
Clouds Scattered Clouds 1200 ft
Mostly Cloudy 3400 ft
Overcast 4600 ft
Dew Point 64 °F
Humidity 98%
Rainfall 0.53 in
Snow Depth Not available.
6:45 AM 8:38 PM
Waxing Crescent, 27% visible
METAR KTYQ 302255Z AUTO 17005KT 4SM RA SCT012 BKN034 OVC046 18/17 A2977 RMK AO2 LTG DSNT NW P0012 T01770172
Pressure 29.77 in
Visibility 4.0 miles
Clouds Scattered Clouds 1200 ft
Mostly Cloudy 3400 ft
Overcast 4600 ft
Dew Point 64 °F
Humidity 98%
Rainfall 0.53 in
Snow Depth Not available.
6:45 AM 8:38 PM
Waxing Crescent, 27% visible
METAR KTYQ 302255Z AUTO 17005KT 4SM RA SCT012 BKN034 OVC046 18/17 A2977 RMK AO2 LTG DSNT NW P0012 T01770172

Get Severe Weather Alerts

Thanks for signing up!

Be on the lookout for a verification email in your inbox.

You'll start receiving the daily forecast at 8 AM.

×

10-Day Weather Forecast

Almanac

Astronomy

Apr. 30, 2017 Rise Set
Actual Time
Civil Twilight
Nautical Twilight
Astronomical Twilight
Moon
Length of Visible Light
Length of Day
Tomorrow will be .
, % of the Moon is Illuminated

Today's Extremes

State Highs State Lows

Community

WunderPhotos

WunderBlog® & News

Nearby

Air Quality

  Air Quality AQ Index Pollutant
Not available.

Snow Depth

Station Depth Elevation

Earthquake Activity

City Distance Mag. Time & Date
Minimum magnitude displayed is 2.5.

Coastal Water Temperatures

Place Temperature

Stations

Nearby Weather Stations

Station Location Temp. Windchill Dew Point Humidity Wind Precip. Elev Updated Type
                   

Watches & Warnings

There are currently no watches in effect.